Time;durP1;ratioP1;P1;durP2;ratioP2;P2;SDS_P1;SDS_P2;PMS_P1;PMS_P2;Temp;Humidity;BMP_temperature;BMP_pressure;BME280_temperature;BME280_humidity;BME280_pressure;Samples;Min_cycle;Max_cycle;Signal;HPM_P1;HPM_P2
2024/04/09 00:01:04;;;;;;;;;;;;;;;18.97;46.44;97336.00;5424448;26;19961;-88
2024/04/09 00:03:31;;;;;;;;;;;;;;;18.70;47.81;97334.94;5452013;26;19928;-88
2024/04/09 00:05:58;;;;;;;;;;;;;;;18.72;47.86;97338.47;5422312;26;19997;-88
2024/04/09 00:08:27;;;;;;;;;;;;;;;18.91;47.89;97347.00;5448450;26;19928;-90
2024/04/09 00:10:53;;;;;;;;;;;;;;;18.77;48.34;97351.88;5440322;26;19933;-88
2024/04/09 00:13:20;;;;;;;;;;;;;;;18.43;50.43;97342.75;5415674;26;19940;-88
2024/04/09 00:15:46;;;;;;;;;;;;;;;18.13;51.72;97346.19;5466934;26;19936;-88
2024/04/09 00:18:11;;;;;;;;;;;;;;;17.83;53.20;97350.47;5398614;26;19929;-88
2024/04/09 00:20:43;;;;;;;;;;;;;;;17.79;54.24;97335.28;5449233;26;19928;-89
2024/04/09 00:23:16;;;;;;;;;;;;;;;18.17;51.80;97340.69;5448509;26;19929;-88
2024/04/09 00:25:43;;;;;;;;;;;;;;;18.00;53.19;97344.69;5427508;26;19936;-89
2024/04/09 00:28:09;;;;;;;;;;;;;;;17.57;55.59;97343.78;5450323;26;20014;-88
2024/04/09 00:30:35;;;;;;;;;;;;;;;17.35;55.83;97346.03;5441824;26;20262;-88
2024/04/09 00:33:00;;;;;;;;;;;;;;;17.32;55.94;97342.50;5444171;26;19928;-90
2024/04/09 00:35:26;;;;;;;;;;;;;;;17.11;57.00;97338.44;5444132;26;19928;-88
2024/04/09 00:37:51;;;;;;;;;;;;;;;16.77;58.34;97339.06;5437675;26;20342;-88
2024/04/09 00:40:20;;;;;;;;;;;;;;;16.70;58.22;97336.44;5440032;26;20371;-87
2024/04/09 00:42:49;;;;;;;;;;;;;;;16.77;58.75;97348.91;5430379;26;19936;-88
2024/04/09 00:45:22;;;;;;;;;;;;;;;16.65;59.50;97348.19;5459520;26;20320;-87
2024/04/09 00:47:48;;;;;;;;;;;;;;;16.52;59.98;97359.19;5434895;26;19999;-89
2024/04/09 00:50:14;;;;;;;;;;;;;;;16.34;61.25;97360.41;5438464;26;19936;-88
2024/04/09 00:52:41;;;;;;;;;;;;;;;16.31;61.51;97357.75;5435208;26;20370;-88
2024/04/09 00:55:08;;;;;;;;;;;;;;;16.11;62.37;97356.25;5407889;26;19940;-88
2024/04/09 00:57:34;;;;;;;;;;;;;;;16.01;62.89;97351.03;5441226;26;19937;-89
2024/04/09 01:00:00;;;;;;;;;;;;;;;15.77;62.82;97358.53;5450041;26;20652;-88
2024/04/09 01:02:25;;;;;;;;;;;;;;;15.58;64.32;97365.03;5437412;26;20319;-88
2024/04/09 01:04:54;;;;;;;;;;;;;;;15.48;64.58;97361.56;5413534;26;19936;-88
2024/04/09 01:07:20;;;;;;;;;;;;;;;15.42;65.08;97363.41;5450155;26;19928;-89
2024/04/09 01:09:45;;;;;;;;;;;;;;;15.49;65.84;97374.09;5448693;26;20285;-87
2024/04/09 01:12:11;;;;;;;;;;;;;;;15.39;66.65;97378.69;5444336;26;20319;-89
2024/04/09 01:14:36;;;;;;;;;;;;;;;15.21;67.20;97372.63;5443349;26;19934;-88
2024/04/09 01:17:03;;;;;;;;;;;;;;;15.18;67.19;97376.22;5413249;26;19936;-88
2024/04/09 01:19:28;;;;;;;;;;;;;;;15.26;67.38;97377.03;5432502;26;19933;-88
2024/04/09 01:21:53;;;;;;;;;;;;;;;15.11;68.24;97375.41;5431271;26;19944;-89
2024/04/09 01:24:19;;;;;;;;;;;;;;;15.03;68.71;97369.22;5449340;26;20506;-89
2024/04/09 01:26:44;;;;;;;;;;;;;;;15.01;68.15;97372.84;5448142;26;19939;-88
2024/04/09 01:29:10;;;;;;;;;;;;;;;15.01;68.56;97368.34;5440419;26;19936;-89
2024/04/09 01:31:35;;;;;;;;;;;;;;;14.97;68.71;97366.59;5436217;26;19941;-88
2024/04/09 01:34:02;;;;;;;;;;;;;;;14.88;69.29;97369.38;5427243;26;19948;-87
2024/04/09 01:36:28;;;;;;;;;;;;;;;14.84;69.18;97362.25;5427736;26;19929;-89
2024/04/09 01:38:54;;;;;;;;;;;;;;;14.76;69.37;97373.09;5435159;26;19936;-88
2024/04/09 01:41:19;;;;;;;;;;;;;;;14.71;69.84;97371.31;5444892;26;19935;-88
2024/04/09 01:43:45;;;;;;;;;;;;;;;14.58;70.94;97371.44;5436465;26;19929;-88
2024/04/09 01:46:11;;;;;;;;;;;;;;;14.46;70.68;97371.50;5450640;26;19968;-88
2024/04/09 01:48:37;;;;;;;;;;;;;;;14.43;71.83;97379.59;5435482;26;19939;-90
2024/04/09 01:51:08;;;;;;;;;;;;;;;14.45;71.42;97369.72;5435663;26;19928;-89
2024/04/09 01:53:33;;;;;;;;;;;;;;;14.41;71.34;97362.59;5447638;26;19936;-88
2024/04/09 01:55:59;;;;;;;;;;;;;;;14.46;72.26;97366.13;5444158;26;19928;-89
2024/04/09 01:58:25;;;;;;;;;;;;;;;14.48;71.81;97364.38;5440872;26;19929;-88
2024/04/09 02:00:50;;;;;;;;;;;;;;;14.41;72.02;97373.31;5438850;26;19939;-86
2024/04/09 02:03:15;;;;;;;;;;;;;;;14.35;72.78;97368.00;5434648;26;19936;-87
2024/04/09 02:05:41;;;;;;;;;;;;;;;14.40;72.34;97365.31;5434276;26;19936;-88
2024/04/09 02:08:06;;;;;;;;;;;;;;;14.43;72.61;97358.13;5451434;26;19941;-87
2024/04/09 02:10:31;;;;;;;;;;;;;;;14.55;72.87;97360.72;5395524;26;19929;-87
2024/04/09 02:12:57;;;;;;;;;;;;;;;14.55;72.53;97363.41;5438738;26;19936;-88
2024/04/09 02:15:23;;;;;;;;;;;;;;;14.51;72.37;97360.75;5436978;26;19981;-91
2024/04/09 02:17:48;;;;;;;;;;;;;;;14.47;71.66;97365.25;5435154;26;19928;-88
2024/04/09 02:20:14;;;;;;;;;;;;;;;14.38;72.46;97368.00;5431099;26;20368;-88
2024/04/09 02:22:39;;;;;;;;;;;;;;;14.31;72.59;97371.63;5436273;26;19936;-88
2024/04/09 02:25:05;;;;;;;;;;;;;;;14.43;72.46;97387.63;5429455;26;19929;-88
2024/04/09 02:27:30;;;;;;;;;;;;;;;14.40;72.56;97378.72;5449753;26;20623;-86
2024/04/09 02:29:59;;;;;;;;;;;;;;;14.27;73.55;97380.59;5421301;26;19936;-89
2024/04/09 02:32:25;;;;;;;;;;;;;;;14.17;74.12;97378.88;5439146;26;19984;-89
2024/04/09 02:34:50;;;;;;;;;;;;;;;14.26;73.45;97384.19;5427412;26;19933;-89
2024/04/09 02:37:16;;;;;;;;;;;;;;;14.13;73.86;97380.69;5444974;26;19964;-87
2024/04/09 02:39:41;;;;;;;;;;;;;;;14.07;74.38;97384.28;5444307;26;20655;-88
2024/04/09 02:42:13;;;;;;;;;;;;;;;14.07;74.81;97376.25;5441212;26;19961;-88
2024/04/09 02:44:38;;;;;;;;;;;;;;;13.96;75.10;97383.47;5441156;26;19981;-87
2024/04/09 02:47:04;;;;;;;;;;;;;;;14.05;74.55;97385.22;5434649;26;19929;-87
2024/04/09 02:49:30;;;;;;;;;;;;;;;14.23;74.21;97394.91;5446082;26;19998;-87
2024/04/09 02:51:56;;;;;;;;;;;;;;;14.12;74.05;97382.47;5442629;26;19952;-88
2024/04/09 02:54:21;;;;;;;;;;;;;;;14.04;73.60;97386.13;5442600;26;19961;-88
2024/04/09 02:56:46;;;;;;;;;;;;;;;14.04;73.44;97384.34;5435585;26;20293;-88
2024/04/09 02:59:13;;;;;;;;;;;;;;;13.96;74.12;97379.91;5423312;26;19929;-88
2024/04/09 03:01:38;;;;;;;;;;;;;;;13.73;75.60;97385.41;5426011;26;20374;-87
2024/04/09 03:04:03;;;;;;;;;;;;;;;13.52;76.71;97384.59;5436158;26;19932;-87
2024/04/09 03:06:29;;;;;;;;;;;;;;;13.31;77.68;97382.88;5427882;26;19936;-88
2024/04/09 03:08:55;;;;;;;;;;;;;;;13.02;78.80;97384.72;5412930;26;20264;-88
2024/04/09 03:11:21;;;;;;;;;;;;;;;12.81;80.28;97382.97;5433671;26;20022;-87
2024/04/09 03:13:51;;;;;;;;;;;;;;;12.73;81.40;97390.13;5434687;26;19929;-87
2024/04/09 03:16:18;;;;;;;;;;;;;;;12.70;81.19;97398.16;5432778;26;19978;-87
2024/04/09 03:18:44;;;;;;;;;;;;;;;12.53;81.69;97401.72;5442625;26;19940;-88
2024/04/09 03:21:09;;;;;;;;;;;;;;;12.71;81.75;97403.50;5424327;26;19964;-88
2024/04/09 03:23:35;;;;;;;;;;;;;;;12.76;80.09;97396.38;5424249;26;20350;-87
2024/04/09 03:26:01;;;;;;;;;;;;;;;12.72;81.21;97391.00;5437728;26;19945;-88
2024/04/09 03:28:26;;;;;;;;;;;;;;;12.45;81.32;97394.59;5441819;26;19939;-88
2024/04/09 03:31:01;;;;;;;;;;;;;;;12.38;81.58;97399.03;5446157;26;19928;-88
2024/04/09 03:33:26;;;;;;;;;;;;;;;12.32;81.82;97399.94;5419972;26;19935;-88
2024/04/09 03:35:52;;;;;;;;;;;;;;;12.32;82.37;97402.63;5432118;26;20343;-88
2024/04/09 03:38:18;;;;;;;;;;;;;;;12.30;82.62;97416.88;5398705;26;20357;-88
2024/04/09 03:40:51;;;;;;;;;;;;;;;12.43;81.95;97428.47;5469466;26;19936;-88
2024/04/09 03:43:17;;;;;;;;;;;;;;;12.37;81.87;97444.53;5445499;26;19939;-88
2024/04/09 03:45:44;;;;;;;;;;;;;;;12.31;82.28;97446.31;5434160;26;19929;-88
2024/04/09 03:48:25;;;;;;;;;;;;;;;12.25;83.07;97456.97;5433350;26;20171;-89
2024/04/09 03:50:50;;;;;;;;;;;;;;;12.32;82.71;97460.56;5430277;26;20863;-87
2024/04/09 03:53:15;;;;;;;;;;;;;;;12.36;82.86;97472.13;5432199;26;20888;-88
2024/04/09 03:55:41;;;;;;;;;;;;;;;12.31;82.81;97477.47;5429146;26;20273;-87
2024/04/09 03:58:06;;;;;;;;;;;;;;;12.31;82.57;97473.06;5430367;26;20262;-88
2024/04/09 04:00:32;;;;;;;;;;;;;;;12.20;82.53;97480.13;5426147;26;20270;-87
2024/04/09 04:02:57;;;;;;;;;;;;;;;12.14;82.32;97487.25;5428942;26;19997;-89
2024/04/09 04:05:23;;;;;;;;;;;;;;;12.00;83.26;97482.75;5404693;26;19936;-89
2024/04/09 04:07:48;;;;;;;;;;;;;;;12.28;80.99;97496.22;5427873;26;21205;-87
2024/04/09 04:10:13;;;;;;;;;;;;;;;12.06;80.13;97500.59;5424456;26;20289;-88
2024/04/09 04:12:39;;;;;;;;;;;;;;;11.96;80.66;97501.44;5451372;26;20639;-88
2024/04/09 04:15:06;;;;;;;;;;;;;;;11.75;81.73;97513.81;5433087;26;19936;-88
2024/04/09 04:17:31;;;;;;;;;;;;;;;11.68;81.33;97516.44;5444212;26;19932;-88
2024/04/09 04:19:57;;;;;;;;;;;;;;;11.67;82.18;97526.22;5443983;26;20415;-88
2024/04/09 04:22:22;;;;;;;;;;;;;;;11.66;81.90;97526.22;5454111;26;19929;-88
2024/04/09 04:24:48;;;;;;;;;;;;;;;11.65;82.92;97533.34;5454128;26;19950;-87
2024/04/09 04:27:13;;;;;;;;;;;;;;;11.68;83.45;97527.09;5443701;26;19928;-88
2024/04/09 04:29:39;;;;;;;;;;;;;;;11.63;83.28;97535.09;5448106;26;19929;-88
2024/04/09 04:32:05;;;;;;;;;;;;;;;11.59;83.67;97538.63;5422382;26;19943;-87
2024/04/09 04:34:31;;;;;;;;;;;;;;;11.53;83.39;97539.50;5414607;26;19940;-88
2024/04/09 04:36:56;;;;;;;;;;;;;;;11.43;82.60;97545.66;5452333;26;20338;-87
2024/04/09 04:39:22;;;;;;;;;;;;;;;11.29;83.20;97548.22;5452669;26;19929;-88
2024/04/09 04:41:47;;;;;;;;;;;;;;;11.05;84.32;97543.59;5437561;26;19928;-88
2024/04/09 04:44:12;;;;;;;;;;;;;;;11.00;84.87;97556.03;5441291;26;19932;-87
2024/04/09 04:46:38;;;;;;;;;;;;;;;11.15;84.03;97560.59;5442749;26;19937;-88
2024/04/09 04:49:03;;;;;;;;;;;;;;;11.25;85.86;97570.44;5415129;26;19997;-87
2024/04/09 04:51:28;;;;;;;;;;;;;;;11.39;85.65;97577.69;5432497;26;19933;-88
2024/04/09 04:53:54;;;;;;;;;;;;;;;11.32;86.00;97579.41;5445866;26;19935;-88
2024/04/09 04:56:19;;;;;;;;;;;;;;;11.24;86.63;97594.47;5458050;26;20261;-88
2024/04/09 04:58:44;;;;;;;;;;;;;;;11.15;87.06;97591.72;5439634;26;19941;-88
2024/04/09 05:01:10;;;;;;;;;;;;;;;11.14;86.14;97595.28;5444288;26;19997;-88
2024/04/09 05:03:36;;;;;;;;;;;;;;;11.06;85.33;97600.53;5450797;26;20500;-88
2024/04/09 05:06:05;;;;;;;;;;;;;;;11.12;85.08;97600.63;5430416;26;19933;-90
2024/04/09 05:08:31;;;;;;;;;;;;;;;11.14;83.60;97621.97;5420335;26;19929;-89
2024/04/09 05:10:56;;;;;;;;;;;;;;;11.03;82.12;97629.91;5449647;26;19928;-89
2024/04/09 05:13:21;;;;;;;;;;;;;;;11.03;83.17;97641.47;5443794;26;19928;-88
2024/04/09 05:15:47;;;;;;;;;;;;;;;10.97;83.11;97643.16;5414322;26;19941;-89
2024/04/09 05:18:14;;;;;;;;;;;;;;;11.02;82.37;97655.69;5441576;26;20330;-89
2024/04/09 05:20:39;;;;;;;;;;;;;;;11.03;81.94;97657.47;5422802;26;19937;-88
2024/04/09 05:23:05;;;;;;;;;;;;;;;11.02;81.06;97660.16;5395763;26;19940;-93
2024/04/09 05:25:32;;;;;;;;;;;;;;;10.99;81.38;97668.09;5448110;26;19998;-90
2024/04/09 05:27:58;;;;;;;;;;;;;;;11.16;82.96;97669.19;5449360;26;19933;-90
2024/04/09 05:30:24;;;;;;;;;;;;;;;11.14;82.58;97665.59;5427547;26;20431;-89
2024/04/09 05:32:49;;;;;;;;;;;;;;;11.35;82.98;97672.88;5433708;26;19941;-87
2024/04/09 05:35:18;;;;;;;;;;;;;;;11.46;83.87;97684.59;5424188;26;19997;-89
2024/04/09 05:37:43;;;;;;;;;;;;;;;11.55;83.83;97706.03;5425660;26;19928;-89
2024/04/09 05:40:09;;;;;;;;;;;;;;;11.73;82.46;97718.63;5432512;26;19929;-89
2024/04/09 05:42:39;;;;;;;;;;;;;;;11.81;81.93;97724.94;5419086;26;19941;-89
2024/04/09 05:45:06;;;;;;;;;;;;;;;11.90;81.89;97740.19;5432606;26;19936;-91
2024/04/09 05:47:32;;;;;;;;;;;;;;;12.04;81.33;97733.19;5423080;26;19929;-89
2024/04/09 05:49:58;;;;;;;;;;;;;;;12.22;80.51;97740.44;5429150;26;19933;-89
2024/04/09 05:52:24;;;;;;;;;;;;;;;12.54;79.76;97748.63;5426045;26;19983;-89
2024/04/09 05:54:50;;;;;;;;;;;;;;;12.79;77.58;97741.66;5414542;26;19986;-87
2024/04/09 05:57:15;;;;;;;;;;;;;;;13.16;77.04;97738.19;5419181;26;20287;-90
2024/04/09 05:59:40;;;;;;;;;;;;;;;13.47;75.35;97737.44;5397796;26;20224;-90
2024/04/09 06:02:07;;;;;;;;;;;;;;;13.84;73.77;97729.41;5433340;26;19936;-90
2024/04/09 06:04:32;;;;;;;;;;;;;;;13.92;72.84;97732.97;5454721;26;20001;-90
2024/04/09 06:06:58;;;;;;;;;;;;;;;14.12;71.26;97741.91;5401671;26;19941;-91
2024/04/09 06:09:24;;;;;;;;;;;;;;;14.28;70.59;97739.22;5448299;26;20006;-89
2024/04/09 06:11:49;;;;;;;;;;;;;;;14.40;70.12;97738.28;5445365;26;19935;-90
2024/04/09 06:14:15;;;;;;;;;;;;;;;14.63;70.12;97739.16;5450595;26;20582;-91
2024/04/09 06:16:42;;;;;;;;;;;;;;;14.73;68.68;97748.09;5444693;26;19953;-90
2024/04/09 06:19:07;;;;;;;;;;;;;;;14.95;67.78;97743.53;5417241;26;19944;-91
2024/04/09 06:21:32;;;;;;;;;;;;;;;15.23;66.59;97758.63;5446951;26;19936;-90
2024/04/09 06:23:59;;;;;;;;;;;;;;;15.48;65.92;97759.41;5450351;26;19934;-90
2024/04/09 06:26:25;;;;;;;;;;;;;;;15.75;64.38;97757.44;5429897;26;19935;-90
2024/04/09 06:28:51;;;;;;;;;;;;;;;15.93;63.66;97751.94;5452135;26;19928;-90
2024/04/09 06:31:17;;;;;;;;;;;;;;;16.15;62.26;97764.31;5420389;26;19929;-90
2024/04/09 06:33:42;;;;;;;;;;;;;;;16.29;62.12;97765.97;5450660;26;19929;-90
2024/04/09 06:36:08;;;;;;;;;;;;;;;16.34;61.78;97773.13;5416946;26;20259;-90
2024/04/09 06:38:33;;;;;;;;;;;;;;;16.38;61.79;97774.91;5382896;26;19974;-90
2024/04/09 06:41:00;;;;;;;;;;;;;;;16.51;61.68;97770.25;5447488;26;20346;-91
2024/04/09 06:43:26;;;;;;;;;;;;;;;16.76;60.95;97773.63;5417269;26;19936;-90
2024/04/09 06:45:52;;;;;;;;;;;;;;;16.88;60.62;97772.59;5450243;26;20384;-91
2024/04/09 06:48:18;;;;;;;;;;;;;;;17.03;60.08;97776.94;5451429;26;20381;-91
2024/04/09 06:50:43;;;;;;;;;;;;;;;17.00;60.26;97794.00;5451687;26;19935;-89
2024/04/09 06:53:09;;;;;;;;;;;;;;;16.95;60.81;97790.47;5451232;26;20434;-90
2024/04/09 06:55:34;;;;;;;;;;;;;;;16.93;60.92;97797.69;5450591;26;20809;-90
2024/04/09 06:57:59;;;;;;;;;;;;;;;17.04;60.74;97795.75;5423562;26;19936;-93
2024/04/09 07:00:25;;;;;;;;;;;;;;;17.04;61.08;97798.47;5468558;26;20011;-89
2024/04/09 07:02:52;;;;;;;;;;;;;;;17.05;61.40;97786.75;5443584;25;19960;-89
2024/04/09 07:05:18;;;;;;;;;;;;;;;17.04;61.66;97800.25;5474309;26;20372;-89
2024/04/09 07:07:45;;;;;;;;;;;;;;;17.11;61.82;97796.59;5460204;26;19956;-91
2024/04/09 07:10:12;;;;;;;;;;;;;;;17.01;61.76;97798.50;5452219;26;19928;-89
2024/04/09 07:12:38;;;;;;;;;;;;;;;16.99;62.31;97803.00;5452316;26;20282;-89
2024/04/09 07:15:05;;;;;;;;;;;;;;;16.95;63.13;97813.84;5462078;26;19954;-91
2024/04/09 07:17:30;;;;;;;;;;;;;;;17.04;62.69;97820.03;5471407;26;19957;-91
2024/04/09 07:20:01;;;;;;;;;;;;;;;17.01;62.36;97824.53;5463115;26;19928;-90
2024/04/09 07:22:27;;;;;;;;;;;;;;;16.97;62.84;97828.22;5455206;26;20652;-91
2024/04/09 07:24:52;;;;;;;;;;;;;;;17.16;62.14;97837.88;5453065;26;19928;-90
2024/04/09 07:27:18;;;;;;;;;;;;;;;17.36;62.00;97832.25;5442579;26;19935;-91
2024/04/09 07:29:45;;;;;;;;;;;;;;;17.47;61.77;97840.19;5443493;26;19939;-91
2024/04/09 07:32:12;;;;;;;;;;;;;;;17.26;62.46;97849.44;5475400;26;19932;-88
2024/04/09 07:34:37;;;;;;;;;;;;;;;17.41;61.87;97842.06;5439177;26;20369;-92
2024/04/09 07:37:03;;;;;;;;;;;;;;;17.52;61.79;97847.31;5438899;26;19978;-90
2024/04/09 07:39:28;;;;;;;;;;;;;;;17.60;61.50;97852.63;5449933;26;19928;-90
2024/04/09 07:41:54;;;;;;;;;;;;;;;17.90;60.84;97846.81;5449616;26;19943;-90
2024/04/09 07:44:19;;;;;;;;;;;;;;;17.98;60.54;97835.03;5450900;26;19940;-90
2024/04/09 07:46:48;;;;;;;;;;;;;;;18.49;59.94;97856.72;5419641;26;19936;-90
2024/04/09 07:49:17;;;;;;;;;;;;;;;18.80;58.24;97868.84;5470996;26;19928;-92
2024/04/09 07:51:43;;;;;;;;;;;;;;;19.03;58.25;97862.16;5451486;26;19965;-91
2024/04/09 07:54:08;;;;;;;;;;;;;;;19.05;57.77;97874.69;5447680;26;19928;-90
2024/04/09 07:56:34;;;;;;;;;;;;;;;18.82;57.73;97879.63;5453794;26;19928;-91
2024/04/09 07:59:00;;;;;;;;;;;;;;;18.63;58.47;97898.81;5460496;26;19929;-89
2024/04/09 08:01:26;;;;;;;;;;;;;;;18.52;59.06;97908.00;5460146;26;19935;-90
2024/04/09 08:03:51;;;;;;;;;;;;;;;18.01;60.38;97900.66;5459451;26;19929;-90
2024/04/09 08:06:16;;;;;;;;;;;;;;;17.77;61.51;97907.25;5449727;26;19935;-89
2024/04/09 08:08:42;;;;;;;;;;;;;;;17.52;62.08;97920.13;5462876;26;19929;-89
2024/04/09 08:11:10;;;;;;;;;;;;;;;17.13;64.02;97943.00;5450529;26;19928;-89
2024/04/09 08:13:36;;;;;;;;;;;;;;;16.17;66.63;97956.28;5478216;26;19998;-89
2024/04/09 08:16:01;;;;;;;;;;;;;;;15.90;67.54;97978.84;5465994;26;19993;-90
2024/04/09 08:18:27;;;;;;;;;;;;;;;15.56;67.51;97979.81;5459429;26;20250;-89
2024/04/09 08:20:53;;;;;;;;;;;;;;;15.17;68.08;97997.78;5469692;26;19935;-90
2024/04/09 08:23:18;;;;;;;;;;;;;;;14.97;67.92;98010.34;5475612;26;19932;-92
2024/04/09 08:25:44;;;;;;;;;;;;;;;14.75;67.47;98020.16;5467060;26;19935;-88
2024/04/09 08:28:10;;;;;;;;;;;;;;;14.35;66.07;98044.22;5468661;26;19939;-90
2024/04/09 08:30:37;;;;;;;;;;;;;;;13.79;66.15;98027.00;5442893;26;20385;-91
2024/04/09 08:33:04;;;;;;;;;;;;;;;13.56;65.65;98051.00;5476885;26;19936;-94
2024/04/09 08:35:30;;;;;;;;;;;;;;;13.38;66.21;98066.97;5486352;26;19974;-89
2024/04/09 08:37:57;;;;;;;;;;;;;;;13.44;66.45;98071.47;5492642;26;19935;-91
2024/04/09 08:40:22;;;;;;;;;;;;;;;13.38;66.17;98075.00;5491748;26;20513;-90
2024/04/09 08:42:50;;;;;;;;;;;;;;;13.37;66.02;98097.31;5477046;26;19974;-92
2024/04/09 08:45:16;;;;;;;;;;;;;;;13.23;65.67;98117.75;5491530;26;19939;-91
2024/04/09 08:47:43;;;;;;;;;;;;;;;13.08;65.50;98121.16;5504878;26;19928;-89
2024/04/09 08:50:08;;;;;;;;;;;;;;;12.94;65.10;98125.47;5469878;26;19928;-91
2024/04/09 08:52:34;;;;;;;;;;;;;;;12.91;64.99;98125.44;5495998;26;19939;-90
2024/04/09 08:55:00;;;;;;;;;;;;;;;12.77;65.27;98130.66;5499123;26;19926;-92
2024/04/09 08:57:30;;;;;;;;;;;;;;;12.69;65.74;98151.06;5497019;26;19956;-90
2024/04/09 08:59:57;;;;;;;;;;;;;;;12.74;65.86;98158.28;5485519;26;19928;-90
2024/04/09 09:02:22;;;;;;;;;;;;;;;12.65;66.06;98192.03;5469361;26;19935;-92
2024/04/09 09:04:48;;;;;;;;;;;;;;;12.56;65.25;98199.09;5482479;26;19921;-93
2024/04/09 09:07:18;;;;;;;;;;;;;;;12.36;65.58;98229.13;5494507;26;19970;-94
2024/04/09 09:09:44;;;;;;;;;;;;;;;12.23;65.13;98222.72;5460026;26;19927;-92
2024/04/09 09:12:09;;;;;;;;;;;;;;;12.20;65.45;98211.97;5484793;26;19932;-93
2024/04/09 09:14:35;;;;;;;;;;;;;;;12.29;65.63;98212.09;5462276;26;19921;-92
2024/04/09 09:17:09;;;;;;;;;;;;;;;12.31;65.82;98224.66;5499643;26;19931;-95
2024/04/09 09:19:36;;;;;;;;;;;;;;;12.34;65.34;98229.13;5500824;26;19993;-95
2024/04/09 09:22:09;;;;;;;;;;;;;;;12.24;64.65;98244.13;5496817;26;19929;-92
2024/04/09 09:24:34;;;;;;;;;;;;;;;12.25;64.30;98218.28;5452714;26;19955;-91
2024/04/09 09:27:00;;;;;;;;;;;;;;;12.15;63.47;98216.38;5470357;26;19932;-93
2024/04/09 09:29:26;;;;;;;;;;;;;;;12.13;64.53;98231.50;5479012;26;20044;-91
2024/04/09 09:31:52;;;;;;;;;;;;;;;12.02;63.60;98234.88;5479332;26;19970;-90
2024/04/09 09:34:19;;;;;;;;;;;;;;;11.99;64.51;98248.22;5469985;26;19947;-91
2024/04/09 09:36:44;;;;;;;;;;;;;;;12.03;64.21;98231.34;5481928;26;19931;-90
2024/04/09 09:39:14;;;;;;;;;;;;;;;12.06;64.37;98244.75;5472637;26;19935;-89
2024/04/09 09:41:41;;;;;;;;;;;;;;;11.90;64.31;98249.84;5462796;26;20002;-90
2024/04/09 09:44:07;;;;;;;;;;;;;;;11.80;63.55;98238.97;5468731;26;20015;-91
2024/04/09 09:46:33;;;;;;;;;;;;;;;11.89;64.34;98248.06;5460935;26;19944;-91
2024/04/09 09:48:59;;;;;;;;;;;;;;;11.94;64.38;98268.63;5454487;26;19935;-91
2024/04/09 09:51:26;;;;;;;;;;;;;;;11.89;64.44;98291.72;5467933;26;19928;-89
2024/04/09 09:53:52;;;;;;;;;;;;;;;11.76;63.78;98292.34;5468116;26;19928;-90
2024/04/09 09:56:17;;;;;;;;;;;;;;;11.66;63.75;98301.09;5459222;26;19928;-91
2024/04/09 09:58:43;;;;;;;;;;;;;;;11.55;63.09;98306.25;5437014;26;19929;-90
2024/04/09 10:01:09;;;;;;;;;;;;;;;11.48;63.30;98313.22;5471278;26;20712;-89
2024/04/09 10:03:39;;;;;;;;;;;;;;;11.43;63.02;98338.94;5477568;26;19940;-91
2024/04/09 10:06:05;;;;;;;;;;;;;;;11.44;63.12;98345.19;5478650;26;19940;-90
2024/04/09 10:08:30;;;;;;;;;;;;;;;11.55;62.57;98347.22;5482482;26;20264;-92
2024/04/09 10:10:56;;;;;;;;;;;;;;;11.56;63.24;98357.03;5474895;26;19929;-89
2024/04/09 10:13:25;;;;;;;;;;;;;;;11.44;63.74;98367.47;5464230;26;20425;-90
2024/04/09 10:15:54;;;;;;;;;;;;;;;11.43;64.14;98375.44;5473824;26;19939;-91
2024/04/09 10:18:30;;;;;;;;;;;;;;;11.46;64.06;98389.78;5475675;26;19967;-89
2024/04/09 10:20:56;;;;;;;;;;;;;;;11.32;63.35;98406.41;5481075;26;20251;-89
2024/04/09 10:23:22;;;;;;;;;;;;;;;11.09;62.62;98401.44;5431723;26;20397;-91
2024/04/09 10:25:48;;;;;;;;;;;;;;;10.81;64.44;98421.28;5439382;26;19928;-88
2024/04/09 10:28:26;;;;;;;;;;;;;;;10.24;67.54;98419.00;5443730;26;19932;-89
2024/04/09 10:30:53;;;;;;;;;;;;;;;10.13;68.38;98408.03;5429818;26;19928;-90
2024/04/09 10:33:26;;;;;;;;;;;;;;;10.07;68.51;98415.00;5468913;26;19928;-90
2024/04/09 10:35:54;;;;;;;;;;;;;;;10.12;68.93;98422.25;5472481;26;19928;-91
2024/04/09 10:38:19;;;;;;;;;;;;;;;10.24;68.79;98419.00;5464984;26;19937;-91
2024/04/09 10:40:44;;;;;;;;;;;;;;;10.37;67.24;98421.13;5449745;26;19993;-89
2024/04/09 10:43:10;;;;;;;;;;;;;;;10.55;65.28;98426.03;5456563;26;19928;-90
2024/04/09 10:45:36;;;;;;;;;;;;;;;10.62;65.16;98427.94;5447231;26;20270;-90
2024/04/09 10:48:02;;;;;;;;;;;;;;;10.82;65.49;98428.41;5462796;26;20373;-89
2024/04/09 10:50:28;;;;;;;;;;;;;;;10.86;63.77;98414.28;5463470;26;19928;-92
2024/04/09 10:52:53;;;;;;;;;;;;;;;10.82;62.83;98419.50;5469796;26;19928;-90
2024/04/09 10:55:19;;;;;;;;;;;;;;;10.82;62.74;98433.75;5465342;26;19933;-91
2024/04/09 10:57:51;;;;;;;;;;;;;;;10.70;62.25;98433.47;5466232;26;19934;-90
2024/04/09 11:00:18;;;;;;;;;;;;;;;10.76;61.92;98423.84;5477553;26;19935;-90
2024/04/09 11:02:45;;;;;;;;;;;;;;;10.96;62.10;98426.97;5436774;26;20005;-88
2024/04/09 11:05:13;;;;;;;;;;;;;;;11.24;60.56;98439.16;5458621;26;19992;-90
2024/04/09 11:07:39;;;;;;;;;;;;;;;11.05;60.38;98431.63;5458136;26;19944;-89
2024/04/09 11:10:06;;;;;;;;;;;;;;;10.91;61.50;98455.31;5454268;26;20261;-90
2024/04/09 11:12:33;;;;;;;;;;;;;;;10.78;62.34;98448.81;5442285;26;19936;-91
2024/04/09 11:14:59;;;;;;;;;;;;;;;10.75;61.98;98469.19;5460799;26;20820;-91
2024/04/09 11:17:24;;;;;;;;;;;;;;;10.86;62.51;98467.66;5460101;26;19928;-90
2024/04/09 11:19:50;;;;;;;;;;;;;;;10.93;62.13;98485.63;5463805;26;19997;-89
2024/04/09 11:22:15;;;;;;;;;;;;;;;10.83;62.75;98490.69;5436289;26;19936;-90
2024/04/09 11:24:41;;;;;;;;;;;;;;;10.72;62.13;98495.78;5458468;26;20358;-92
2024/04/09 11:27:09;;;;;;;;;;;;;;;10.63;63.65;98509.78;5439205;26;19935;-90
2024/04/09 11:29:35;;;;;;;;;;;;;;;10.69;63.10;98506.41;5456232;26;19956;-91
2024/04/09 11:32:04;;;;;;;;;;;;;;;10.38;64.02;98515.34;5454046;26;19928;-90
2024/04/09 11:34:30;;;;;;;;;;;;;;;10.49;64.27;98525.47;5462492;26;19932;-89
2024/04/09 11:36:56;;;;;;;;;;;;;;;10.44;63.72;98531.50;5463416;26;19929;-91
2024/04/09 11:39:22;;;;;;;;;;;;;;;10.42;64.35;98520.81;5460692;26;19935;-89
2024/04/09 11:41:47;;;;;;;;;;;;;;;10.38;63.77;98502.94;5442534;26;19929;-89
2024/04/09 11:44:20;;;;;;;;;;;;;;;10.46;64.09;98519.13;5462727;26;19932;-89
2024/04/09 11:46:45;;;;;;;;;;;;;;;10.61;64.42;98522.19;5482440;26;19928;-90
2024/04/09 11:49:11;;;;;;;;;;;;;;;10.66;64.13;98528.56;5468818;26;19997;-91
2024/04/09 11:51:37;;;;;;;;;;;;;;;10.50;64.78;98543.28;5469196;26;20590;-92
2024/04/09 11:54:03;;;;;;;;;;;;;;;10.45;64.38;98542.25;5470936;26;19939;-91
2024/04/09 11:56:30;;;;;;;;;;;;;;;10.42;64.65;98542.16;5449076;26;19929;-91
2024/04/09 11:58:56;;;;;;;;;;;;;;;10.28;65.52;98556.88;5472422;26;19928;-90
2024/04/09 12:01:21;;;;;;;;;;;;;;;10.18;65.31;98554.78;5464764;26;19935;-90
2024/04/09 12:03:47;;;;;;;;;;;;;;;10.01;65.26;98556.97;5474859;26;19928;-90
2024/04/09 12:06:12;;;;;;;;;;;;;;;10.09;65.32;98558.09;5469790;26;19932;-89
2024/04/09 12:08:38;;;;;;;;;;;;;;;9.94;65.66;98549.66;5462424;26;19929;-90
2024/04/09 12:11:04;;;;;;;;;;;;;;;9.97;65.69;98553.34;5465717;26;19997;-89
2024/04/09 12:13:29;;;;;;;;;;;;;;;9.93;65.10;98563.84;5465229;26;19928;-91
2024/04/09 12:15:54;;;;;;;;;;;;;;;9.97;65.13;98561.34;5441311;26;19936;-91
2024/04/09 12:18:20;;;;;;;;;;;;;;;10.01;65.48;98556.97;5432237;26;19935;-91
2024/04/09 12:20:45;;;;;;;;;;;;;;;10.07;65.45;98573.16;5463515;26;19933;-90
2024/04/09 12:23:10;;;;;;;;;;;;;;;10.03;64.51;98576.59;5467939;26;19997;-93
2024/04/09 12:25:36;;;;;;;;;;;;;;;9.99;64.63;98567.59;5474426;26;19934;-91
2024/04/09 12:28:01;;;;;;;;;;;;;;;9.93;64.88;98583.41;5472162;26;19927;-91
2024/04/09 12:30:27;;;;;;;;;;;;;;;9.96;65.32;98569.25;5479556;26;19997;-89
2024/04/09 12:32:52;;;;;;;;;;;;;;;10.15;64.67;98560.03;5467073;26;19932;-91
2024/04/09 12:35:18;;;;;;;;;;;;;;;10.18;63.99;98555.69;5451946;26;19936;-91
2024/04/09 12:37:43;;;;;;;;;;;;;;;10.09;62.99;98557.19;5434488;26;20004;-91
2024/04/09 12:40:11;;;;;;;;;;;;;;;10.10;63.70;98565.22;5454392;26;20265;-92
2024/04/09 12:42:36;;;;;;;;;;;;;;;9.99;63.71;98575.59;5454895;26;19935;-91